Airfield :
LOGIN :

Register | Disclaimer

   EN    FR    IT 

 










Legend :    VFR   Marginal VFR   IFR   Intensive IFR   Very Intensive IFR
Visi :
Ceiling :
>= 8 km
>= 3000ft
5 to 8 km
1000 to 3000 ft
1500m to 5 km
500 to 1000 ft
800 to 1500m
200 to 500 ft
< 800m
< 200 ft
Symbols :   Thunderstorms  Fog  Heavy snow  Heavy precipitations  Wind > 20 kt
SIGMETs :     Misc.  Thunderstorms  Icing  Turbulence  Mountain Waves  Volcanic Ashes







- Airport Elevation : 231 ft
- IATA code : WTN


EGXW - RAF Waddington

CURRENT METAR :
  • 131250Z 22017KT 9999 -RA FEW011 BKN140 06/04 Q0988 BLU TEMPO 7000 RA BKN010 GRN

EXPIRED METARs :
  • 131150Z 22016KT 9999 SCT025 BKN140 06/04 Q0991 BLU TEMPO 7000 RA SCT010 GRN
  • 131050Z 22013KT CAVOK 05/04 Q0993 BLU TEMPO -RA SCT010 GRN

TAF TAF EGXW
Valid from the 13 at 12:00 until the 14 at 06:00 UTC


131043Z 1312/1406 23016G26KT 9999 BKN025
TEMPO 1312/1315 7000 RA BKN008
BECMG 1313/1315 25015KT
PROB30
TEMPO 1320/1323 24015G25KT 3000 SHRASN SCT006
PROB30
TEMPO 1401/1406 3000 SHRASN SCT006
No reported NOTAMs for that airfield.



MET'MAP, your aeronautical weather chart ! - Copyright ORBIFLY December 2007 - Disclaimer

ORBIFLY MET'MAP TEAM :

Programming & Development : Alexandra Zaïnal
Concept & Development : Baudouin d'Aumeries
Co-Development & Prog : Marc-Olivier Méhu
Technical & hardware support : Manuel Goepfert

Contact : metmap@orbifly.com




SOURCES & CREDITS :

   NOAA